Southwestern Grand Banks: Past 24 Hour Conditions

 

Cartwright Airport

07:00 AM ADT 17 April 2014
This table is a summary of hourly weather conditions for the past 24 hours.
Date / Time
(ADT)
Wind(knots) Conditions Visibility(km) Pressure(kPa) Air tempC) Relative humidity(%) Dew pointC) Wind Chill
17 April 2014
7:00 WSW 14 gust 21 Sunny 24 102.5 -11 87 -12 -20
6:00 W 16 gust 27 Sunny 24 102.3 -10 87 -12 -20
5:00 W 15 gust 24 Clear 24 102.2 -10 36 -22 -19
4:00 W 14 gust 25 Clear 24 102.1 -10 51 -18 -18
3:00 W 10 gust 16 Clear 24 102.0 -9 41 -20 -16
2:00 W 14 gust 22 Clear 24 101.8 -8 43 -18 -16
1:00 W 21 gust 33 Clear 24 101.6 -7 49 -16 -17
0:00 W 19 gust 33 Mainly Clear 24 N/A -5 52 -14 -14
16 April 2014
23:00 W 20 gust 38 Mainly Clear 24 N/A -5 54 -12 -13
22:00 W 13 gust 27 Mainly Clear 24 N/A -3 62 -9 -10
21:00 W 13 gust 27 Mostly Cloudy 24 N/A -2 63 -8 -8
20:00 W 15 gust 26 Cloudy 24 N/A -1 99 -1 -7
19:00 W 17 gust 31 Cloudy 24 N/A 2 75 -2 *
18:00 WNW 16 Light Drizzle 19 99.5 3 89 2 *
17:00 SW 15 gust 20 Light Rain 24 99.3 7 75 3 *
16:00 SW 22 gust 30 Light Rain 19 99.1 8 73 3 *
15:00 SW 20 gust 28 Mostly Cloudy 24 99.0 9 75 5 *
14:00 SW 16 gust 24 Cloudy 24 99.1 8 77 4 *
13:00 SW 19 gust 27 Cloudy 24 99.1 10 74 5 *
12:00 SW 22 gust 30 Mostly Cloudy 24 99.0 12 68 6 *
11:00 SW 16 gust 25 Mostly Cloudy 24 99.2 12 68 7 *
10:00 SSW 17 gust 27 Mostly Cloudy 24 99.3 12 75 7 *
9:00 WSW 15 gust 21 Cloudy 24 99.4 7 90 5 *
8:00 WSW 9 Cloudy 24 99.5 7 90 5 *
7:00 SW 14 Cloudy 24 99.5 6 91 5 *
 
Map of Atlantic - Newfoundland marine weather areas Southwestern Grand Banks - 44138 Banquereau - 44139 Tail of the Bank - 44140 Nickerson Bank - 44251 Northeast Burgeo Bank - 44255 Blanc-Sablon Airport Cap Whittle Chevery Natashquan Airport Heath Point Miscou Island Grand Étang Ingonish Beach North Mountain St.Paul Island J.A. Douglas McCurdy Sydney Airport Charlottetown Airport East Point North Cape Argentia Bonavista Burgeo Cape Race Corner Brook Daniel's Harbour Englee Ferolle Point La Scie Port aux Basques Rocky Harbour Sagona Island St. Anthony Airport St. John's Int'l Airport St. Lawrence Stephenville Airport Twillingate Winterland Wreckhouse Cartwright Airport Mary's Harbour Grates Cove Pool's Island Marticot Island Long Pond Îles de la Madeleine Airport
Legend: buoyBuoy land stationLand Station